sensor_id;sensor_type;location;lat;lon;timestamp;pressure;altitude;pressure_sealevel;temperature;humidity
61571;BME280;47463;49.884;10.010;2023-07-16T00:00:01;101340;;;18.9;88
61571;BME280;47463;49.884;10.010;2023-07-16T00:05:01;101350;;;18.9;88
61571;BME280;47463;49.884;10.010;2023-07-16T00:10:01;101380;;;19;88
61571;BME280;47463;49.884;10.010;2023-07-16T00:15:01;101410;;;19;88
61571;BME280;47463;49.884;10.010;2023-07-16T00:20:01;101450;;;19.1;88
61571;BME280;47463;49.884;10.010;2023-07-16T00:25:01;101510;;;19.1;88
61571;BME280;47463;49.884;10.010;2023-07-16T00:30:01;101520;;;19.1;88
61571;BME280;47463;49.884;10.010;2023-07-16T00:35:01;101490;;;19;87
61571;BME280;47463;49.884;10.010;2023-07-16T00:40:01;101470;;;18.9;87
61571;BME280;47463;49.884;10.010;2023-07-16T00:45:01;101480;;;18.7;87
61571;BME280;47463;49.884;10.010;2023-07-16T00:50:01;101440;;;18.8;87
61571;BME280;47463;49.884;10.010;2023-07-16T00:55:01;101450;;;18.7;87
61571;BME280;47463;49.884;10.010;2023-07-16T01:00:01;101450;;;18.7;88
61571;BME280;47463;49.884;10.010;2023-07-16T01:05:01;101440;;;18.7;88
61571;BME280;47463;49.884;10.010;2023-07-16T01:10:01;101430;;;18.7;89
61571;BME280;47463;49.884;10.010;2023-07-16T01:15:01;101440;;;18.6;89
61571;BME280;47463;49.884;10.010;2023-07-16T01:20:01;101460;;;18.6;89
61571;BME280;47463;49.884;10.010;2023-07-16T01:25:05;101500;;;18.6;89
61571;BME280;47463;49.884;10.010;2023-07-16T01:30:01;101480;;;18.6;89
61571;BME280;47463;49.884;10.010;2023-07-16T01:35:01;101460;;;18.6;89
61571;BME280;47463;49.884;10.010;2023-07-16T01:40:01;101440;;;18.6;89
61571;BME280;47463;49.884;10.010;2023-07-16T01:45:01;101430;;;18.6;89
61571;BME280;47463;49.884;10.010;2023-07-16T01:50:01;101440;;;18.6;89
61571;BME280;47463;49.884;10.010;2023-07-16T01:55:01;101420;;;18.6;89
61571;BME280;47463;49.884;10.010;2023-07-16T02:00:01;101420;;;18.6;90
61571;BME280;47463;49.884;10.010;2023-07-16T02:05:01;101450;;;18.5;90
61571;BME280;47463;49.884;10.010;2023-07-16T02:10:01;101460;;;18.6;90
61571;BME280;47463;49.884;10.010;2023-07-16T02:15:01;101480;;;18.6;90
61571;BME280;47463;49.884;10.010;2023-07-16T02:20:01;101490;;;18.6;90
61571;BME280;47463;49.884;10.010;2023-07-16T02:25:01;101490;;;18.6;89
61571;BME280;47463;49.884;10.010;2023-07-16T02:30:01;101500;;;18.5;89
61571;BME280;47463;49.884;10.010;2023-07-16T02:35:01;101490;;;18.6;88
61571;BME280;47463;49.884;10.010;2023-07-16T02:40:01;101500;;;18.5;87
61571;BME280;47463;49.884;10.010;2023-07-16T02:45:01;101520;;;18.5;86
61571;BME280;47463;49.884;10.010;2023-07-16T02:50:01;101510;;;18.4;86
61571;BME280;47463;49.884;10.010;2023-07-16T02:55:01;101530;;;18.3;86
61571;BME280;47463;49.884;10.010;2023-07-16T03:00:01;101530;;;18.3;86
61571;BME280;47463;49.884;10.010;2023-07-16T03:05:01;101540;;;18.2;86
61571;BME280;47463;49.884;10.010;2023-07-16T03:10:01;101540;;;18.1;85
61571;BME280;47463;49.884;10.010;2023-07-16T03:15:01;101550;;;17.9;85
61571;BME280;47463;49.884;10.010;2023-07-16T03:20:01;101560;;;17.8;85
61571;BME280;47463;49.884;10.010;2023-07-16T03:25:01;101580;;;17.7;86
61571;BME280;47463;49.884;10.010;2023-07-16T03:30:01;101580;;;17.7;85
61571;BME280;47463;49.884;10.010;2023-07-16T03:35:01;101600;;;17.6;85
61571;BME280;47463;49.884;10.010;2023-07-16T03:40:11;101600;;;17.6;85
61571;BME280;47463;49.884;10.010;2023-07-16T03:45:01;101610;;;17.5;85
61571;BME280;47463;49.884;10.010;2023-07-16T03:50:01;101600;;;17.4;85
61571;BME280;47463;49.884;10.010;2023-07-16T03:55:01;101600;;;17.4;86
61571;BME280;47463;49.884;10.010;2023-07-16T04:00:01;101610;;;17.3;86
61571;BME280;47463;49.884;10.010;2023-07-16T04:05:01;101620;;;17.3;86
61571;BME280;47463;49.884;10.010;2023-07-16T04:10:01;101630;;;17.4;86
61571;BME280;47463;49.884;10.010;2023-07-16T04:15:01;101620;;;17.4;85
61571;BME280;47463;49.884;10.010;2023-07-16T04:20:01;101620;;;17.4;85
61571;BME280;47463;49.884;10.010;2023-07-16T04:25:01;101640;;;17.5;85
61571;BME280;47463;49.884;10.010;2023-07-16T04:30:01;101640;;;17.5;85
61571;BME280;47463;49.884;10.010;2023-07-16T04:35:01;101640;;;17.6;85
61571;BME280;47463;49.884;10.010;2023-07-16T04:40:01;101640;;;17.6;85
61571;BME280;47463;49.884;10.010;2023-07-16T04:45:01;101660;;;17.5;86
61571;BME280;47463;49.884;10.010;2023-07-16T04:50:01;101660;;;17.5;85
61571;BME280;47463;49.884;10.010;2023-07-16T04:55:01;101660;;;17.6;85
61571;BME280;47463;49.884;10.010;2023-07-16T05:00:01;101680;;;17.6;84
61571;BME280;47463;49.884;10.010;2023-07-16T05:05:01;101690;;;17.6;83
61571;BME280;47463;49.884;10.010;2023-07-16T05:10:01;101700;;;17.5;83
61571;BME280;47463;49.884;10.010;2023-07-16T05:15:01;101700;;;17.5;84
61571;BME280;47463;49.884;10.010;2023-07-16T05:20:01;101700;;;17.5;83
61571;BME280;47463;49.884;10.010;2023-07-16T05:25:01;101710;;;17.4;83
61571;BME280;47463;49.884;10.010;2023-07-16T05:30:01;101710;;;17.4;84
61571;BME280;47463;49.884;10.010;2023-07-16T05:35:01;101730;;;17.4;83
61571;BME280;47463;49.884;10.010;2023-07-16T05:40:01;101730;;;17.4;82
61571;BME280;47463;49.884;10.010;2023-07-16T05:45:01;101750;;;17.3;82
61571;BME280;47463;49.884;10.010;2023-07-16T05:50:01;101770;;;17.3;82
61571;BME280;47463;49.884;10.010;2023-07-16T05:55:01;101770;;;17.4;81
61571;BME280;47463;49.884;10.010;2023-07-16T06:00:01;101760;;;17.5;81
61571;BME280;47463;49.884;10.010;2023-07-16T06:05:01;101770;;;17.7;80
61571;BME280;47463;49.884;10.010;2023-07-16T06:10:01;101780;;;17.6;79
61571;BME280;47463;49.884;10.010;2023-07-16T06:15:01;101800;;;17.7;79
61571;BME280;47463;49.884;10.010;2023-07-16T06:20:01;101790;;;17.9;78
61571;BME280;47463;49.884;10.010;2023-07-16T06:25:01;101790;;;17.8;76
61571;BME280;47463;49.884;10.010;2023-07-16T06:30:01;101800;;;17.6;77
61571;BME280;47463;49.884;10.010;2023-07-16T06:35:01;101800;;;18;77
61571;BME280;47463;49.884;10.010;2023-07-16T06:40:01;101820;;;17.8;76
61571;BME280;47463;49.884;10.010;2023-07-16T06:45:01;101820;;;17.5;75
61571;BME280;47463;49.884;10.010;2023-07-16T06:50:01;101830;;;17.6;75
61571;BME280;47463;49.884;10.010;2023-07-16T06:55:01;101820;;;17.7;74
61571;BME280;47463;49.884;10.010;2023-07-16T07:00:01;101830;;;17.8;75
61571;BME280;47463;49.884;10.010;2023-07-16T07:05:01;101840;;;18.1;74
61571;BME280;47463;49.884;10.010;2023-07-16T07:10:01;101840;;;18.2;74
61571;BME280;47463;49.884;10.010;2023-07-16T07:15:01;101840;;;18.1;74
61571;BME280;47463;49.884;10.010;2023-07-16T07:20:01;101840;;;17.9;73
61571;BME280;47463;49.884;10.010;2023-07-16T07:25:01;101850;;;17.7;73
61571;BME280;47463;49.884;10.010;2023-07-16T07:30:01;101850;;;17.6;73
61571;BME280;47463;49.884;10.010;2023-07-16T07:35:01;101850;;;17.7;74
61571;BME280;47463;49.884;10.010;2023-07-16T07:40:01;101850;;;17.9;73
61571;BME280;47463;49.884;10.010;2023-07-16T07:45:01;101850;;;18;72
61571;BME280;47463;49.884;10.010;2023-07-16T07:50:01;101840;;;18.3;72
61571;BME280;47463;49.884;10.010;2023-07-16T07:55:01;101840;;;18.7;70
61571;BME280;47463;49.884;10.010;2023-07-16T08:00:01;101860;;;18.5;71
61571;BME280;47463;49.884;10.010;2023-07-16T08:05:01;101850;;;18.6;70
61571;BME280;47463;49.884;10.010;2023-07-16T08:10:01;101850;;;19;68
61571;BME280;47463;49.884;10.010;2023-07-16T08:15:01;101860;;;18.7;67
61571;BME280;47463;49.884;10.010;2023-07-16T08:20:01;101850;;;18.4;69
61571;BME280;47463;49.884;10.010;2023-07-16T08:25:01;101850;;;18.5;69
61571;BME280;47463;49.884;10.010;2023-07-16T08:30:01;101850;;;19.2;68
61571;BME280;47463;49.884;10.010;2023-07-16T08:35:01;101850;;;19.2;65
61571;BME280;47463;49.884;10.010;2023-07-16T08:40:01;101860;;;19.1;65
61571;BME280;47463;49.884;10.010;2023-07-16T08:45:01;101860;;;19;65
61571;BME280;47463;49.884;10.010;2023-07-16T08:50:01;101860;;;18.9;64
61571;BME280;47463;49.884;10.010;2023-07-16T08:55:01;101870;;;19.5;64
61571;BME280;47463;49.884;10.010;2023-07-16T09:00:01;101860;;;19.7;62
61571;BME280;47463;49.884;10.010;2023-07-16T09:05:01;101870;;;20.2;61
61571;BME280;47463;49.884;10.010;2023-07-16T09:10:01;101870;;;20.2;60
61571;BME280;47463;49.884;10.010;2023-07-16T09:15:01;101880;;;19.7;59
61571;BME280;47463;49.884;10.010;2023-07-16T09:20:02;101880;;;20.1;58
61571;BME280;47463;49.884;10.010;2023-07-16T09:25:01;101880;;;20.1;55
61571;BME280;47463;49.884;10.010;2023-07-16T09:30:01;101870;;;20.3;56
61571;BME280;47463;49.884;10.010;2023-07-16T09:35:01;101870;;;20.3;56
61571;BME280;47463;49.884;10.010;2023-07-16T09:40:01;101870;;;20.5;54
61571;BME280;47463;49.884;10.010;2023-07-16T09:45:01;101850;;;20.8;55
61571;BME280;47463;49.884;10.010;2023-07-16T09:50:01;101850;;;21.3;54
61571;BME280;47463;49.884;10.010;2023-07-16T09:55:02;101870;;;21.2;52
61571;BME280;47463;49.884;10.010;2023-07-16T10:00:02;101860;;;21.5;53
61571;BME280;47463;49.884;10.010;2023-07-16T10:05:10;101840;;;21.6;52
61571;BME280;47463;49.884;10.010;2023-07-16T10:10:01;101850;;;21.4;51
61571;BME280;47463;49.884;10.010;2023-07-16T10:15:01;101850;;;21.5;52
61571;BME280;47463;49.884;10.010;2023-07-16T10:20:07;101850;;;21.7;51
61571;BME280;47463;49.884;10.010;2023-07-16T10:25:01;101850;;;21.5;50
61571;BME280;47463;49.884;10.010;2023-07-16T10:30:01;101830;;;21.2;51
61571;BME280;47463;49.884;10.010;2023-07-16T10:35:01;101840;;;21.8;48
61571;BME280;47463;49.884;10.010;2023-07-16T10:40:01;101810;;;22;48
61571;BME280;47463;49.884;10.010;2023-07-16T10:45:01;101830;;;22.2;47
61571;BME280;47463;49.884;10.010;2023-07-16T10:50:03;101820;;;21.7;46
61571;BME280;47463;49.884;10.010;2023-07-16T10:55:01;101820;;;21.8;47
61571;BME280;47463;49.884;10.010;2023-07-16T11:00:01;101810;;;22.4;46
61571;BME280;47463;49.884;10.010;2023-07-16T11:05:02;101820;;;21.8;47
61571;BME280;47463;49.884;10.010;2023-07-16T11:10:01;101810;;;21.6;47
61571;BME280;47463;49.884;10.010;2023-07-16T11:15:01;101810;;;21.5;48
61571;BME280;47463;49.884;10.010;2023-07-16T11:20:01;101810;;;21.7;47
61571;BME280;47463;49.884;10.010;2023-07-16T11:25:01;101810;;;22.3;46
61571;BME280;47463;49.884;10.010;2023-07-16T11:30:01;101800;;;22.2;48
61571;BME280;47463;49.884;10.010;2023-07-16T11:35:01;101790;;;22.3;46
61571;BME280;47463;49.884;10.010;2023-07-16T11:40:02;101820;;;22.7;46
61571;BME280;47463;49.884;10.010;2023-07-16T11:45:01;101810;;;22.5;45
61571;BME280;47463;49.884;10.010;2023-07-16T11:50:01;101820;;;22.2;46
61571;BME280;47463;49.884;10.010;2023-07-16T11:55:01;101810;;;22.5;46
61571;BME280;47463;49.884;10.010;2023-07-16T12:00:01;101820;;;22.2;46
61571;BME280;47463;49.884;10.010;2023-07-16T12:05:01;101820;;;22.9;45
61571;BME280;47463;49.884;10.010;2023-07-16T12:10:01;101800;;;22.5;45
61571;BME280;47463;49.884;10.010;2023-07-16T12:15:01;101790;;;22.6;46
61571;BME280;47463;49.884;10.010;2023-07-16T12:20:01;101790;;;22.8;44
61571;BME280;47463;49.884;10.010;2023-07-16T12:25:01;101780;;;22.6;44
61571;BME280;47463;49.884;10.010;2023-07-16T12:30:01;101780;;;23.3;44
61571;BME280;47463;49.884;10.010;2023-07-16T12:35:01;101770;;;23.3;43
61571;BME280;47463;49.884;10.010;2023-07-16T12:40:01;101770;;;22.8;44
61571;BME280;47463;49.884;10.010;2023-07-16T12:45:01;101760;;;23.5;43
61571;BME280;47463;49.884;10.010;2023-07-16T12:50:01;101770;;;23.6;42
61571;BME280;47463;49.884;10.010;2023-07-16T12:55:01;101760;;;23.9;42
61571;BME280;47463;49.884;10.010;2023-07-16T13:00:01;101760;;;23.9;40
61571;BME280;47463;49.884;10.010;2023-07-16T13:05:01;101780;;;24.2;41
61571;BME280;47463;49.884;10.010;2023-07-16T13:10:01;101760;;;23.6;41
61571;BME280;47463;49.884;10.010;2023-07-16T13:15:01;101760;;;24.3;41
61571;BME280;47463;49.884;10.010;2023-07-16T13:20:01;101760;;;23.7;41
61571;BME280;47463;49.884;10.010;2023-07-16T13:25:01;101760;;;23.8;41
61571;BME280;47463;49.884;10.010;2023-07-16T13:30:01;101760;;;24.2;40
61571;BME280;47463;49.884;10.010;2023-07-16T13:35:01;101750;;;24.3;39
61571;BME280;47463;49.884;10.010;2023-07-16T13:40:01;101760;;;24.6;39
61571;BME280;47463;49.884;10.010;2023-07-16T13:45:01;101760;;;24.2;38
61571;BME280;47463;49.884;10.010;2023-07-16T13:50:01;101750;;;24.5;39
61571;BME280;47463;49.884;10.010;2023-07-16T13:55:01;101760;;;23.9;39
61571;BME280;47463;49.884;10.010;2023-07-16T14:00:01;101750;;;23.9;39
61571;BME280;47463;49.884;10.010;2023-07-16T14:05:01;101760;;;24.3;38
61571;BME280;47463;49.884;10.010;2023-07-16T14:10:01;101760;;;24.3;38
61571;BME280;47463;49.884;10.010;2023-07-16T14:15:01;101750;;;24.6;38
61571;BME280;47463;49.884;10.010;2023-07-16T14:20:01;101740;;;24.2;38
61571;BME280;47463;49.884;10.010;2023-07-16T14:25:01;101740;;;24.4;38
61571;BME280;47463;49.884;10.010;2023-07-16T14:30:01;101730;;;24.9;37
61571;BME280;47463;49.884;10.010;2023-07-16T14:35:01;101730;;;25.1;36
61571;BME280;47463;49.884;10.010;2023-07-16T14:40:01;101730;;;25.1;35
61571;BME280;47463;49.884;10.010;2023-07-16T14:45:01;101720;;;24.6;36
61571;BME280;47463;49.884;10.010;2023-07-16T14:50:01;101720;;;25;36
61571;BME280;47463;49.884;10.010;2023-07-16T14:55:01;101720;;;25.3;36
61571;BME280;47463;49.884;10.010;2023-07-16T15:00:01;101720;;;24.8;36
61571;BME280;47463;49.884;10.010;2023-07-16T15:05:01;101720;;;24.4;36
61571;BME280;47463;49.884;10.010;2023-07-16T15:10:01;101700;;;24.2;36
61571;BME280;47463;49.884;10.010;2023-07-16T15:15:01;101710;;;24.7;36
61571;BME280;47463;49.884;10.010;2023-07-16T15:20:01;101700;;;24.6;34
61571;BME280;47463;49.884;10.010;2023-07-16T15:25:01;101700;;;25.3;35
61571;BME280;47463;49.884;10.010;2023-07-16T15:30:01;101690;;;25.4;35
61571;BME280;47463;49.884;10.010;2023-07-16T15:35:01;101700;;;25.1;34
61571;BME280;47463;49.884;10.010;2023-07-16T15:40:11;101710;;;25.1;34
61571;BME280;47463;49.884;10.010;2023-07-16T15:45:01;101700;;;25.2;34
61571;BME280;47463;49.884;10.010;2023-07-16T15:50:01;101710;;;25.2;34
61571;BME280;47463;49.884;10.010;2023-07-16T15:55:01;101690;;;25.1;34
61571;BME280;47463;49.884;10.010;2023-07-16T16:00:01;101690;;;24.8;34
61571;BME280;47463;49.884;10.010;2023-07-16T16:05:01;101700;;;25.1;34
61571;BME280;47463;49.884;10.010;2023-07-16T16:10:01;101690;;;24.9;34
61571;BME280;47463;49.884;10.010;2023-07-16T16:15:01;101690;;;25.1;34
61571;BME280;47463;49.884;10.010;2023-07-16T16:20:01;101690;;;25.1;35
61571;BME280;47463;49.884;10.010;2023-07-16T16:25:01;101690;;;25;35
61571;BME280;47463;49.884;10.010;2023-07-16T16:30:01;101690;;;25;35
61571;BME280;47463;49.884;10.010;2023-07-16T16:35:01;101690;;;25.1;35
61571;BME280;47463;49.884;10.010;2023-07-16T16:40:01;101690;;;25;35
61571;BME280;47463;49.884;10.010;2023-07-16T16:45:01;101690;;;25.1;34
61571;BME280;47463;49.884;10.010;2023-07-16T16:50:01;101690;;;24.9;35
61571;BME280;47463;49.884;10.010;2023-07-16T16:55:01;101690;;;24.8;35
61571;BME280;47463;49.884;10.010;2023-07-16T17:00:01;101680;;;24.9;35
61571;BME280;47463;49.884;10.010;2023-07-16T17:05:01;101680;;;25;35
61571;BME280;47463;49.884;10.010;2023-07-16T17:10:01;101680;;;24.8;35
61571;BME280;47463;49.884;10.010;2023-07-16T17:15:01;101680;;;25;35
61571;BME280;47463;49.884;10.010;2023-07-16T17:20:01;101690;;;25.1;35
61571;BME280;47463;49.884;10.010;2023-07-16T17:25:01;101680;;;24.7;35
61571;BME280;47463;49.884;10.010;2023-07-16T17:30:01;101670;;;24.5;36
61571;BME280;47463;49.884;10.010;2023-07-16T17:35:01;101670;;;24.4;36
61571;BME280;47463;49.884;10.010;2023-07-16T17:40:01;101680;;;24.5;36
61571;BME280;47463;49.884;10.010;2023-07-16T17:45:01;101690;;;24.4;36
61571;BME280;47463;49.884;10.010;2023-07-16T17:50:01;101690;;;24.4;36
61571;BME280;47463;49.884;10.010;2023-07-16T17:55:01;101690;;;24.3;36
61571;BME280;47463;49.884;10.010;2023-07-16T18:00:01;101710;;;24.2;36
61571;BME280;47463;49.884;10.010;2023-07-16T18:05:01;101700;;;24.2;37
61571;BME280;47463;49.884;10.010;2023-07-16T18:10:01;101700;;;24.1;37
61571;BME280;47463;49.884;10.010;2023-07-16T18:15:01;101710;;;23.9;37
61571;BME280;47463;49.884;10.010;2023-07-16T18:20:01;101700;;;23.8;38
61571;BME280;47463;49.884;10.010;2023-07-16T18:25:01;101700;;;23.6;38
61571;BME280;47463;49.884;10.010;2023-07-16T18:30:01;101710;;;23.6;38
61571;BME280;47463;49.884;10.010;2023-07-16T18:35:01;101710;;;23.4;39
61571;BME280;47463;49.884;10.010;2023-07-16T18:40:01;101700;;;23.3;39
61571;BME280;47463;49.884;10.010;2023-07-16T18:45:01;101720;;;23;39
61571;BME280;47463;49.884;10.010;2023-07-16T18:50:01;101710;;;22.9;40
61571;BME280;47463;49.884;10.010;2023-07-16T18:55:01;101710;;;22.4;44
61571;BME280;47463;49.884;10.010;2023-07-16T19:00:01;101710;;;21.4;47
61571;BME280;47463;49.884;10.010;2023-07-16T19:05:01;101720;;;20.9;49
61571;BME280;47463;49.884;10.010;2023-07-16T19:10:01;101710;;;20.7;50
61571;BME280;47463;49.884;10.010;2023-07-16T19:15:01;101720;;;20.2;52
61571;BME280;47463;49.884;10.010;2023-07-16T19:20:01;101720;;;20.2;51
61571;BME280;47463;49.884;10.010;2023-07-16T19:25:01;101720;;;20;53
61571;BME280;47463;49.884;10.010;2023-07-16T19:30:01;101730;;;19.9;53
61571;BME280;47463;49.884;10.010;2023-07-16T19:35:01;101730;;;19.9;52
61571;BME280;47463;49.884;10.010;2023-07-16T19:40:01;101750;;;20;51
61571;BME280;47463;49.884;10.010;2023-07-16T19:45:01;101750;;;19.3;56
61571;BME280;47463;49.884;10.010;2023-07-16T19:50:01;101750;;;18.6;59
61571;BME280;47463;49.884;10.010;2023-07-16T19:55:01;101760;;;18.3;60
61571;BME280;47463;49.884;10.010;2023-07-16T20:00:01;101760;;;18;62
61571;BME280;47463;49.884;10.010;2023-07-16T20:05:01;101770;;;17.8;62
61571;BME280;47463;49.884;10.010;2023-07-16T20:10:01;101780;;;17.5;64
61571;BME280;47463;49.884;10.010;2023-07-16T20:15:01;101770;;;17.4;65
61571;BME280;47463;49.884;10.010;2023-07-16T20:20:01;101770;;;17.2;65
61571;BME280;47463;49.884;10.010;2023-07-16T20:25:01;101780;;;17;66
61571;BME280;47463;49.884;10.010;2023-07-16T20:30:01;101780;;;16.9;66
61571;BME280;47463;49.884;10.010;2023-07-16T20:35:01;101800;;;16.6;67
61571;BME280;47463;49.884;10.010;2023-07-16T20:40:01;101790;;;16.6;67
61571;BME280;47463;49.884;10.010;2023-07-16T20:45:17;101800;;;16.5;67
61571;BME280;47463;49.884;10.010;2023-07-16T20:50:01;101800;;;16.5;67
61571;BME280;47463;49.884;10.010;2023-07-16T20:55:01;101790;;;16.4;68
61571;BME280;47463;49.884;10.010;2023-07-16T21:00:01;101810;;;16.3;68
61571;BME280;47463;49.884;10.010;2023-07-16T21:05:01;101800;;;16.2;69
61571;BME280;47463;49.884;10.010;2023-07-16T21:10:01;101810;;;16.2;69
61571;BME280;47463;49.884;10.010;2023-07-16T21:15:01;101820;;;16.1;70
61571;BME280;47463;49.884;10.010;2023-07-16T21:20:01;101810;;;16.1;70
61571;BME280;47463;49.884;10.010;2023-07-16T21:25:01;101820;;;16;71
61571;BME280;47463;49.884;10.010;2023-07-16T21:30:01;101830;;;16;71
61571;BME280;47463;49.884;10.010;2023-07-16T21:35:01;101830;;;15.9;71
61571;BME280;47463;49.884;10.010;2023-07-16T21:40:01;101830;;;15.9;71
61571;BME280;47463;49.884;10.010;2023-07-16T21:45:01;101850;;;16;71
61571;BME280;47463;49.884;10.010;2023-07-16T21:50:01;101850;;;15.9;71
61571;BME280;47463;49.884;10.010;2023-07-16T21:55:01;101850;;;15.7;71
61571;BME280;47463;49.884;10.010;2023-07-16T22:00:01;101850;;;15.6;72
61571;BME280;47463;49.884;10.010;2023-07-16T22:05:01;101850;;;15.4;73
61571;BME280;47463;49.884;10.010;2023-07-16T22:10:01;101840;;;15.3;74
61571;BME280;47463;49.884;10.010;2023-07-16T22:15:01;101860;;;15.2;74
61571;BME280;47463;49.884;10.010;2023-07-16T22:20:01;101860;;;15.3;74
61571;BME280;47463;49.884;10.010;2023-07-16T22:25:01;101870;;;15.4;73
61571;BME280;47463;49.884;10.010;2023-07-16T22:30:01;101870;;;15.4;73
61571;BME280;47463;49.884;10.010;2023-07-16T22:35:01;101870;;;15.4;73
61571;BME280;47463;49.884;10.010;2023-07-16T22:40:01;101870;;;15.3;73
61571;BME280;47463;49.884;10.010;2023-07-16T22:45:01;101860;;;15.2;73
61571;BME280;47463;49.884;10.010;2023-07-16T22:50:01;101870;;;15.3;73
61571;BME280;47463;49.884;10.010;2023-07-16T22:55:01;101880;;;15.3;73
61571;BME280;47463;49.884;10.010;2023-07-16T23:00:01;101870;;;15.3;73
61571;BME280;47463;49.884;10.010;2023-07-16T23:05:01;101880;;;15.5;73
61571;BME280;47463;49.884;10.010;2023-07-16T23:10:01;101880;;;15.5;73
61571;BME280;47463;49.884;10.010;2023-07-16T23:15:01;101880;;;15.5;73
61571;BME280;47463;49.884;10.010;2023-07-16T23:20:01;101880;;;15.3;74
61571;BME280;47463;49.884;10.010;2023-07-16T23:25:01;101880;;;15.3;73
61571;BME280;47463;49.884;10.010;2023-07-16T23:30:01;101880;;;15.2;74
61571;BME280;47463;49.884;10.010;2023-07-16T23:35:01;101880;;;15.2;74
61571;BME280;47463;49.884;10.010;2023-07-16T23:40:01;101880;;;15.1;74
61571;BME280;47463;49.884;10.010;2023-07-16T23:45:01;101880;;;15;74
61571;BME280;47463;49.884;10.010;2023-07-16T23:50:01;101890;;;15;74
61571;BME280;47463;49.884;10.010;2023-07-16T23:55:01;101900;;;14.8;75
